Terminal Aerodrome Forecast
Issued by NWS

Home | Current Version | Previous Version | Text Only | Print | Product List | Glossary On
Versions: 1 2 3 4 5 6 7 8 9 10 11 12 13 14 15
000
FTUS44 KLIX 291734
TAFMSY
TAF
KMSY 291734Z 2918/3018 06011KT P6SM SCT035 BKN045 BKN100
      TEMPO 2920/2924 2SM TSRA BKN028CB
     FM300000 10007KT P6SM FEW060 BKN250
     FM300700 06006KT P6SM FEW020 BKN250
     FM301600 08008KT P6SM SCT040 BKN250=

USA.gov is the U.S. government's official web portal to all federal, state and local government web resources and services.